createdAt,value
2023-04-14T00:00:42.062Z,2.73
2023-04-14T00:03:09.115Z,3.40
2023-04-14T00:05:36.245Z,3.60
2023-04-14T00:08:03.215Z,4.33
2023-04-14T00:10:30.166Z,5.13
2023-04-14T00:12:57.084Z,4.87
2023-04-14T00:15:24.248Z,4.03
2023-04-14T00:17:51.205Z,3.47
2023-04-14T00:20:18.065Z,4.03
2023-04-14T00:22:44.964Z,4.03
2023-04-14T00:25:11.809Z,4.33
2023-04-14T00:27:38.708Z,3.87
2023-04-14T00:30:06.296Z,4.20
2023-04-14T00:32:34.663Z,3.83
2023-04-14T00:35:03.665Z,3.77
2023-04-14T00:37:31.161Z,3.80
2023-04-14T00:39:59.641Z,3.30
2023-04-14T00:42:26.573Z,4.43
2023-04-14T00:44:53.622Z,3.20
2023-04-14T00:47:23.292Z,3.73
2023-04-14T00:49:51.261Z,3.83
2023-04-14T00:52:19.603Z,3.13
2023-04-14T00:54:46.721Z,3.70
2023-04-14T00:57:13.837Z,3.80
2023-04-14T00:59:41.397Z,4.13
2023-04-14T01:02:08.787Z,3.93
2023-04-14T01:04:51.880Z,3.97
2023-04-14T01:07:22.527Z,4.03
2023-04-14T01:09:50.576Z,3.80
2023-04-14T01:12:29.684Z,3.63
2023-04-14T01:15:18.434Z,4.50
2023-04-14T01:17:47.966Z,3.60
2023-04-14T01:20:27.358Z,4.90
2023-04-14T01:23:13.807Z,3.77
2023-04-14T01:25:58.112Z,3.77
2023-04-14T01:28:59.358Z,3.90
2023-04-14T01:31:48.528Z,3.50
2023-04-14T01:34:36.739Z,3.57
2023-04-14T01:37:17.226Z,3.20
2023-04-14T01:39:54.846Z,2.27
2023-04-14T01:42:26.863Z,3.40
2023-04-14T01:44:59.186Z,3.10
2023-04-14T01:47:27.443Z,2.83
2023-04-14T01:49:55.977Z,3.50
2023-04-14T01:52:23.464Z,2.87
2023-04-14T01:54:53.698Z,3.77
2023-04-14T01:57:23.190Z,3.33
2023-04-14T01:59:53.978Z,3.20
2023-04-14T02:02:23.367Z,4.10
2023-04-14T02:04:51.247Z,3.90
2023-04-14T02:07:22.069Z,3.80
2023-04-14T02:09:50.540Z,4.00
2023-04-14T02:12:20.794Z,3.90
2023-04-14T02:14:51.318Z,3.90
2023-04-14T02:17:21.834Z,3.70
2023-04-14T02:19:49.851Z,3.30
2023-04-14T02:22:17.004Z,4.20
2023-04-14T02:24:43.871Z,4.30
2023-04-14T02:27:17.732Z,4.47
2023-04-14T02:29:52.620Z,3.97
2023-04-14T02:32:30.156Z,4.17
2023-04-14T02:35:19.734Z,3.87
2023-04-14T02:37:50.993Z,4.27
2023-04-14T02:40:21.922Z,4.40
2023-04-14T02:42:55.740Z,3.80
2023-04-14T02:45:26.301Z,3.90
2023-04-14T02:47:57.049Z,4.17
2023-04-14T02:50:45.092Z,4.20
2023-04-14T02:53:20.543Z,3.80
2023-04-14T02:55:49.350Z,4.30
2023-04-14T02:58:18.446Z,4.70
2023-04-14T03:00:46.958Z,3.93
2023-04-14T03:03:16.143Z,4.43
2023-04-14T03:05:44.244Z,3.90
2023-04-14T03:08:15.287Z,4.43
2023-04-14T03:10:46.684Z,4.30
2023-04-14T03:13:16.943Z,4.03
2023-04-14T03:15:46.046Z,4.03
2023-04-14T03:18:14.794Z,4.80
2023-04-14T03:20:44.367Z,3.87
2023-04-14T03:23:12.691Z,4.37
2023-04-14T03:25:53.039Z,5.03
2023-04-14T03:28:30.507Z,3.60
2023-04-14T03:31:01.565Z,4.40
2023-04-14T03:33:35.922Z,3.47
2023-04-14T03:36:04.185Z,4.00
2023-04-14T03:38:33.453Z,4.20
2023-04-14T03:41:06.454Z,3.93
2023-04-14T03:43:34.845Z,3.80
2023-04-14T03:46:06.866Z,4.77
2023-04-14T03:48:42.787Z,5.00
2023-04-14T03:51:14.205Z,3.50
2023-04-14T03:53:45.173Z,3.90
2023-04-14T03:56:16.323Z,3.33
2023-04-14T03:58:47.399Z,5.10
2023-04-14T04:01:18.121Z,4.53
2023-04-14T04:03:46.035Z,4.33
2023-04-14T04:06:13.550Z,3.97
2023-04-14T04:08:42.005Z,3.63
2023-04-14T04:11:10.701Z,4.47
2023-04-14T04:13:39.566Z,3.97
2023-04-14T04:16:07.750Z,4.63
2023-04-14T04:18:38.390Z,4.57
2023-04-14T04:21:08.469Z,4.30
2023-04-14T04:23:40.540Z,4.33
2023-04-14T04:26:08.539Z,4.60
2023-04-14T04:28:38.810Z,4.30
2023-04-14T04:31:06.832Z,5.63
2023-04-14T04:33:34.722Z,5.90
2023-04-14T04:36:05.652Z,5.83
2023-04-14T04:38:38.192Z,5.97
2023-04-14T04:41:05.193Z,5.63
2023-04-14T04:43:32.052Z,5.10
2023-04-14T04:45:58.994Z,4.90
2023-04-14T04:48:27.592Z,4.57
2023-04-14T04:50:54.448Z,4.93
2023-04-14T04:53:21.388Z,4.70
2023-04-14T04:55:48.268Z,5.47
2023-04-14T04:58:15.151Z,4.93
2023-04-14T05:00:43.696Z,5.87
2023-04-14T05:03:10.707Z,4.97
2023-04-14T05:05:37.817Z,5.50
2023-04-14T05:08:04.865Z,5.17
2023-04-14T05:10:35.044Z,5.93
2023-04-14T05:13:01.937Z,5.17
2023-04-14T05:15:28.826Z,5.93
2023-04-14T05:17:55.796Z,5.20
2023-04-14T05:20:22.660Z,6.17
2023-04-14T05:22:49.452Z,5.43
2023-04-14T05:25:16.529Z,5.07
2023-04-14T05:27:43.419Z,5.20
2023-04-14T05:30:11.109Z,4.70
2023-04-14T05:32:38.057Z,4.63
2023-04-14T05:35:05.626Z,4.73
2023-04-14T05:37:33.501Z,4.83
2023-04-14T05:40:01.826Z,5.07
2023-04-14T05:42:28.667Z,5.13
2023-04-14T05:44:55.482Z,5.07
2023-04-14T05:47:22.444Z,4.73
2023-04-14T05:49:49.427Z,4.77
2023-04-14T05:52:16.283Z,5.20
2023-04-14T05:54:43.388Z,4.00
2023-04-14T05:57:10.284Z,4.73
2023-04-14T05:59:37.148Z,5.17
2023-04-14T06:02:07.497Z,5.33
2023-04-14T06:04:34.697Z,5.77
2023-04-14T06:07:03.103Z,5.37
2023-04-14T06:09:30.006Z,4.93
2023-04-14T06:11:56.926Z,4.47
2023-04-14T06:14:23.848Z,4.87
2023-04-14T06:16:51.319Z,4.70
2023-04-14T06:19:21.400Z,3.70
2023-04-14T06:21:48.299Z,5.10
2023-04-14T06:24:15.190Z,5.00
2023-04-14T06:26:42.879Z,5.20
2023-04-14T06:29:09.772Z,5.00
2023-04-14T06:31:36.738Z,5.40
2023-04-14T06:34:03.714Z,4.20
2023-04-14T06:36:31.899Z,4.60
2023-04-14T06:38:59.225Z,4.77
2023-04-14T06:41:26.437Z,5.67
2023-04-14T06:43:53.250Z,5.27
2023-04-14T06:46:20.218Z,4.17
2023-04-14T06:48:47.074Z,4.73
2023-04-14T06:51:14.534Z,4.47
2023-04-14T06:53:41.447Z,4.60
2023-04-14T06:56:28.690Z,4.30
2023-04-14T06:58:55.700Z,4.70
2023-04-14T07:01:22.629Z,4.50
2023-04-14T07:03:50.070Z,5.00
2023-04-14T07:06:17.413Z,5.10
2023-04-14T07:08:45.362Z,4.93
2023-04-14T07:11:12.896Z,4.50
2023-04-14T07:13:40.989Z,4.63
2023-04-14T07:16:08.527Z,4.37
2023-04-14T07:18:35.766Z,5.00
2023-04-14T07:21:03.110Z,4.27
2023-04-14T07:23:30.374Z,4.73
2023-04-14T07:25:59.004Z,3.77
2023-04-14T07:28:27.102Z,4.50
2023-04-14T07:30:54.675Z,4.97
2023-04-14T07:33:22.650Z,3.67
2023-04-14T07:36:00.761Z,4.43
2023-04-14T07:38:28.829Z,4.13
2023-04-14T07:40:55.813Z,4.40
2023-04-14T07:43:23.402Z,3.90
2023-04-14T07:45:50.284Z,4.83
2023-04-14T07:48:19.716Z,4.00
2023-04-14T07:50:48.641Z,4.90
2023-04-14T07:53:16.227Z,5.40
2023-04-14T07:55:43.163Z,3.77
2023-04-14T07:58:15.100Z,4.63
2023-04-14T08:00:42.705Z,4.80
2023-04-14T08:03:10.194Z,3.23
2023-04-14T08:05:38.029Z,4.53
2023-04-14T08:08:05.441Z,3.37
2023-04-14T08:10:32.357Z,4.10
2023-04-14T08:13:03.665Z,3.97
2023-04-14T08:15:32.437Z,4.23
2023-04-14T08:17:59.444Z,3.80
2023-04-14T08:20:27.043Z,3.63
2023-04-14T08:22:54.024Z,4.33
2023-04-14T08:25:20.948Z,5.13
2023-04-14T08:27:47.869Z,5.17
2023-04-14T08:30:14.939Z,4.77
2023-04-14T08:32:42.105Z,4.50
2023-04-14T08:35:35.304Z,4.87
2023-04-14T08:38:01.444Z,4.07
2023-04-14T08:40:37.662Z,4.53
2023-04-14T08:43:05.752Z,4.60
2023-04-14T08:45:33.385Z,4.73
2023-04-14T08:48:02.617Z,4.90
2023-04-14T08:50:37.396Z,3.90
2023-04-14T08:53:08.809Z,4.97
2023-04-14T08:55:40.555Z,4.47
2023-04-14T08:58:08.604Z,5.30
2023-04-14T09:00:36.199Z,5.37
2023-04-14T09:03:04.083Z,4.97
2023-04-14T09:05:31.153Z,5.70
2023-04-14T09:07:58.325Z,4.63
2023-04-14T09:10:25.892Z,4.67
2023-04-14T09:12:54.635Z,4.50
2023-04-14T09:15:21.943Z,5.40
2023-04-14T09:17:48.915Z,4.70
2023-04-14T09:20:35.999Z,5.23
2023-04-14T09:23:04.608Z,5.43
2023-04-14T09:25:32.199Z,5.53
2023-04-14T09:27:59.246Z,6.33
2023-04-14T09:30:26.463Z,4.40
2023-04-14T09:32:56.831Z,5.40
2023-04-14T09:35:45.885Z,5.33
2023-04-14T09:38:12.971Z,6.17
2023-04-14T09:40:42.891Z,5.93
2023-04-14T09:43:24.420Z,5.70
2023-04-14T09:45:51.448Z,6.13
2023-04-14T09:48:18.699Z,5.20
2023-04-14T09:50:59.307Z,5.77
2023-04-14T09:53:36.606Z,6.80
2023-04-14T09:56:06.433Z,5.70
2023-04-14T09:58:36.098Z,5.60
2023-04-14T10:01:05.060Z,6.10
2023-04-14T10:03:39.331Z,7.20
2023-04-14T10:06:20.612Z,5.97
2023-04-14T10:08:49.654Z,6.00
2023-04-14T10:11:27.844Z,7.40
2023-04-14T10:13:59.534Z,6.50
2023-04-14T10:16:27.593Z,7.40
2023-04-14T10:18:55.554Z,6.83
2023-04-14T10:21:23.243Z,6.47
2023-04-14T10:23:51.309Z,7.50
2023-04-14T10:26:19.861Z,8.70
2023-04-14T10:28:51.136Z,7.63
2023-04-14T10:31:26.780Z,8.70
2023-04-14T10:33:54.433Z,9.23
2023-04-14T10:36:29.392Z,9.10
2023-04-14T10:39:04.651Z,9.93
2023-04-14T10:41:43.933Z,8.97
2023-04-14T10:44:28.711Z,10.43
2023-04-14T10:47:02.595Z,9.53
2023-04-14T10:49:33.023Z,9.80
2023-04-14T10:52:04.028Z,10.13
2023-04-14T10:55:18.047Z,9.40
2023-04-14T10:57:48.317Z,10.60
2023-04-14T11:00:22.794Z,10.73
2023-04-14T11:03:04.150Z,10.83
2023-04-14T11:05:35.812Z,11.90
2023-04-14T11:08:16.886Z,11.47
2023-04-14T11:10:51.431Z,11.20
2023-04-14T11:13:18.464Z,10.47
2023-04-14T11:15:50.971Z,10.80
2023-04-14T11:18:33.158Z,10.47
2023-04-14T11:21:13.144Z,9.80
2023-04-14T11:23:41.155Z,10.23
2023-04-14T11:26:10.123Z,9.17
2023-04-14T11:28:39.366Z,8.40
2023-04-14T11:31:08.596Z,9.77
2023-04-14T11:33:37.858Z,7.77
2023-04-14T11:36:06.740Z,8.40
2023-04-14T11:38:36.252Z,7.90
2023-04-14T11:41:04.302Z,6.63
2023-04-14T11:43:31.210Z,8.07
2023-04-14T11:45:59.368Z,8.10
2023-04-14T11:48:28.590Z,7.50
2023-04-14T11:50:56.424Z,8.00
2023-04-14T11:53:23.258Z,7.57
2023-04-14T11:55:52.171Z,7.60
2023-04-14T11:58:24.696Z,7.80
2023-04-14T12:00:55.102Z,8.50
2023-04-14T12:03:28.129Z,7.60
2023-04-14T12:06:03.550Z,5.17
2023-04-14T12:08:31.461Z,6.20
2023-04-14T12:10:59.136Z,6.50
2023-04-14T12:13:27.278Z,6.60
2023-04-14T12:15:54.701Z,7.13
2023-04-14T12:18:22.165Z,7.33
2023-04-14T12:20:56.491Z,6.57
2023-04-14T12:23:23.844Z,6.87
2023-04-14T12:25:51.675Z,6.77
2023-04-14T12:28:19.736Z,6.60
2023-04-14T12:30:54.628Z,6.00
2023-04-14T12:33:26.254Z,5.90
2023-04-14T12:35:53.847Z,4.97
2023-04-14T12:38:26.930Z,4.40
2023-04-14T12:40:54.014Z,4.77
2023-04-14T12:43:28.622Z,4.80
2023-04-14T12:45:55.715Z,3.97
2023-04-14T12:48:22.923Z,4.03
2023-04-14T12:50:51.164Z,4.30
2023-04-14T12:53:26.251Z,3.70
2023-04-14T12:56:09.524Z,4.33
2023-04-14T12:58:38.189Z,4.10
2023-04-14T13:01:07.404Z,4.10
2023-04-14T13:03:42.525Z,3.47
2023-04-14T13:06:11.129Z,4.57
2023-04-14T13:08:38.120Z,3.97
2023-04-14T13:11:05.121Z,4.20
2023-04-14T13:13:32.132Z,3.97
2023-04-14T13:16:15.158Z,7.60
2023-04-14T13:18:44.032Z,4.07
2023-04-14T13:21:11.628Z,4.07
2023-04-14T13:23:38.916Z,3.80
2023-04-14T13:26:06.200Z,1.87
2023-04-14T13:28:33.183Z,3.70
2023-04-14T13:30:59.984Z,3.90
2023-04-14T13:33:27.827Z,3.37
2023-04-14T13:35:55.863Z,3.90
2023-04-14T13:38:22.905Z,4.60
2023-04-14T13:40:49.914Z,4.00
2023-04-14T13:43:18.791Z,3.70
2023-04-14T13:45:46.571Z,3.70
2023-04-14T13:48:14.015Z,3.80
2023-04-14T13:50:40.952Z,3.70
2023-04-14T13:53:07.853Z,3.47
2023-04-14T13:55:36.395Z,3.90
2023-04-14T13:58:03.642Z,3.80
2023-04-14T14:00:30.808Z,3.33
2023-04-14T14:02:57.948Z,3.30
2023-04-14T14:05:25.108Z,2.63
2023-04-14T14:07:52.036Z,2.90
2023-04-14T14:10:18.919Z,2.03
2023-04-14T14:12:45.853Z,3.00
2023-04-14T14:15:12.902Z,2.77
2023-04-14T14:17:41.083Z,2.97
2023-04-14T14:20:09.619Z,3.00
2023-04-14T14:22:36.861Z,3.30
2023-04-14T14:25:15.152Z,2.60
2023-04-14T14:27:46.218Z,2.67
2023-04-14T14:30:13.512Z,2.20
2023-04-14T14:32:40.411Z,2.63
2023-04-14T14:35:07.587Z,2.70
2023-04-14T14:37:34.530Z,2.73
2023-04-14T14:40:01.671Z,2.43
2023-04-14T14:42:28.598Z,2.50
2023-04-14T14:44:55.594Z,2.80
2023-04-14T14:47:22.647Z,2.13
2023-04-14T14:49:59.665Z,2.77
2023-04-14T14:52:31.846Z,2.30
2023-04-14T14:54:58.799Z,2.80
2023-04-14T14:57:26.776Z,2.70
2023-04-14T14:59:53.828Z,2.60
2023-04-14T15:02:21.811Z,2.73
2023-04-14T15:04:49.196Z,2.77
2023-04-14T15:07:16.160Z,2.57
2023-04-14T15:09:43.379Z,2.70
2023-04-14T15:12:10.379Z,3.17
2023-04-14T15:14:37.363Z,2.73
2023-04-14T15:17:04.207Z,3.20
2023-04-14T15:19:31.057Z,3.10
2023-04-14T15:21:58.737Z,3.60
2023-04-14T15:24:25.646Z,2.93
2023-04-14T15:26:52.609Z,3.60
2023-04-14T15:29:25.200Z,3.40
2023-04-14T15:31:52.182Z,3.27
2023-04-14T15:34:19.044Z,3.20
2023-04-14T15:36:46.025Z,4.00
2023-04-14T15:39:12.853Z,4.27
2023-04-14T15:41:39.791Z,4.07
2023-04-14T15:44:06.627Z,3.23
2023-04-14T15:46:33.476Z,4.70
2023-04-14T15:49:20.823Z,4.33
2023-04-14T15:51:49.590Z,4.47
2023-04-14T15:54:17.425Z,3.00
2023-04-14T15:56:44.319Z,3.20
2023-04-14T15:59:11.534Z,2.80
2023-04-14T16:01:38.799Z,3.63
2023-04-14T16:04:05.962Z,3.20
2023-04-14T16:06:34.251Z,4.03
2023-04-14T16:09:01.436Z,3.33
2023-04-14T16:11:30.036Z,3.07
2023-04-14T16:13:57.380Z,2.73
2023-04-14T16:16:25.264Z,2.53
2023-04-14T16:18:53.012Z,2.97
2023-04-14T16:21:19.872Z,2.67
2023-04-14T16:23:46.719Z,3.10
2023-04-14T16:26:13.633Z,3.30
2023-04-14T16:28:40.608Z,3.50
2023-04-14T16:31:10.292Z,2.77
2023-04-14T16:33:38.108Z,3.00
2023-04-14T16:36:08.707Z,2.73
2023-04-14T16:38:35.890Z,2.80
2023-04-14T16:41:03.641Z,3.20
2023-04-14T16:43:30.727Z,3.47
2023-04-14T16:46:03.230Z,3.33
2023-04-14T16:48:31.037Z,3.30
2023-04-14T16:50:58.235Z,3.10
2023-04-14T16:53:25.357Z,3.43
2023-04-14T16:55:52.197Z,3.13
2023-04-14T16:58:19.019Z,3.57
2023-04-14T17:00:46.023Z,3.40
2023-04-14T17:03:13.075Z,4.13
2023-04-14T17:05:40.077Z,2.67
2023-04-14T17:08:06.962Z,3.57
2023-04-14T17:10:33.846Z,3.17
2023-04-14T17:13:00.715Z,2.53
2023-04-14T17:15:27.977Z,3.10
2023-04-14T17:17:54.901Z,3.00
2023-04-14T17:20:21.877Z,2.83
2023-04-14T17:22:48.989Z,2.80
2023-04-14T17:25:18.544Z,2.90
2023-04-14T17:27:45.894Z,3.20
2023-04-14T17:30:12.945Z,3.03
2023-04-14T17:32:40.336Z,3.43
2023-04-14T17:35:09.355Z,3.53
2023-04-14T17:37:36.814Z,3.87
2023-04-14T17:40:05.188Z,4.07
2023-04-14T17:42:32.504Z,4.43
2023-04-14T17:44:59.364Z,4.83
2023-04-14T17:47:27.312Z,5.10
2023-04-14T17:49:54.748Z,4.47
2023-04-14T17:52:21.811Z,4.37
2023-04-14T17:54:50.164Z,4.33
2023-04-14T17:57:17.476Z,5.80
2023-04-14T17:59:45.161Z,4.80
2023-04-14T18:02:15.952Z,4.40
2023-04-14T18:04:43.010Z,4.80
2023-04-14T18:07:09.913Z,5.63
2023-04-14T18:09:36.871Z,5.20
2023-04-14T18:12:03.804Z,6.33
2023-04-14T18:14:31.218Z,5.57
2023-04-14T18:16:58.638Z,5.33
2023-04-14T18:19:25.572Z,4.00
2023-04-14T18:21:52.488Z,4.73
2023-04-14T18:29:37.219Z,4.07
2023-04-14T18:32:04.334Z,3.70
2023-04-14T18:34:31.218Z,3.70
2023-04-14T18:36:58.083Z,4.17
2023-04-14T18:39:25.392Z,4.30
2023-04-14T18:41:52.535Z,3.57
2023-04-14T18:44:19.427Z,3.87
2023-04-14T18:46:46.373Z,4.10
2023-04-14T18:49:13.711Z,3.73
2023-04-14T18:51:40.578Z,4.10
2023-04-14T18:54:07.518Z,3.97
2023-04-14T18:56:34.424Z,4.73
2023-04-14T18:59:02.642Z,4.70
2023-04-14T19:01:29.696Z,4.00
2023-04-14T19:03:58.005Z,4.20
2023-04-14T19:06:25.129Z,3.10
2023-04-14T19:08:52.895Z,3.90
2023-04-14T19:11:20.830Z,4.10
2023-04-14T19:13:47.900Z,3.93
2023-04-14T19:16:15.082Z,3.20
2023-04-14T19:18:42.241Z,4.00
2023-04-14T19:21:09.309Z,3.93
2023-04-14T19:23:37.124Z,3.87
2023-04-14T19:26:05.623Z,4.27
2023-04-14T19:28:32.535Z,4.47
2023-04-14T19:31:00.315Z,4.50
2023-04-14T19:33:27.656Z,4.40
2023-04-14T19:35:54.485Z,4.53
2023-04-14T19:38:21.430Z,4.63
2023-04-14T19:40:49.839Z,4.40
2023-04-14T19:43:17.566Z,4.10
2023-04-14T19:45:54.935Z,4.63
2023-04-14T19:48:23.939Z,4.40
2023-04-14T19:50:55.399Z,3.43
2023-04-14T19:53:23.331Z,4.40
2023-04-14T19:55:51.434Z,4.03
2023-04-14T19:58:21.945Z,4.07
2023-04-14T20:00:51.800Z,4.60
2023-04-14T20:03:20.150Z,4.00
2023-04-14T20:05:51.744Z,4.87
2023-04-14T20:08:20.551Z,3.67
2023-04-14T20:10:51.476Z,3.93
2023-04-14T20:13:19.974Z,4.10
2023-04-14T20:15:49.061Z,4.17
2023-04-14T20:18:19.021Z,4.30
2023-04-14T20:20:49.818Z,5.20
2023-04-14T20:23:17.258Z,4.27
2023-04-14T20:25:45.802Z,4.17
2023-04-14T20:28:12.799Z,3.83
2023-04-14T20:30:39.856Z,4.30
2023-04-14T20:33:06.873Z,3.70
2023-04-14T20:35:40.596Z,4.07
2023-04-14T20:38:07.833Z,4.50
2023-04-14T20:40:35.217Z,3.90
2023-04-14T20:43:02.230Z,4.37
2023-04-14T20:45:29.604Z,4.57
2023-04-14T20:47:56.803Z,4.43
2023-04-14T20:50:24.125Z,5.10
2023-04-14T20:52:51.207Z,6.30
2023-04-14T20:58:28.560Z,5.60
2023-04-14T21:00:56.922Z,5.23
2023-04-14T21:03:24.171Z,5.67
2023-04-14T21:05:51.385Z,5.33
2023-04-14T21:08:18.260Z,4.77
2023-04-14T21:11:15.216Z,4.40
2023-04-14T21:15:28.727Z,4.57
2023-04-14T21:16:19.309Z,4.90
2023-04-14T21:18:46.325Z,5.43
2023-04-14T21:21:13.707Z,5.40
2023-04-14T21:23:41.305Z,5.13
2023-04-14T21:26:08.296Z,5.83
2023-04-14T21:28:35.772Z,5.60
2023-04-14T21:31:03.148Z,4.57
2023-04-14T21:33:30.940Z,5.80
2023-04-14T21:35:58.241Z,4.70
2023-04-14T21:38:25.267Z,6.27
2023-04-14T21:40:52.455Z,5.10
2023-04-14T21:43:19.361Z,5.20
2023-04-14T21:45:46.672Z,4.83
2023-04-14T21:48:17.524Z,5.57
2023-04-14T21:50:44.400Z,5.90
2023-04-14T21:53:11.362Z,5.00
2023-04-14T21:55:38.425Z,4.90
2023-04-14T21:58:05.840Z,5.93
2023-04-14T22:00:32.815Z,6.47
2023-04-14T22:02:59.858Z,6.23
2023-04-14T22:05:27.282Z,5.77
2023-04-14T22:07:55.317Z,5.27
2023-04-14T22:10:22.302Z,5.63
2023-04-14T22:12:49.782Z,5.40
2023-04-14T22:15:17.038Z,6.60
2023-04-14T22:17:45.069Z,6.47
2023-04-14T22:20:12.280Z,6.70
2023-04-14T22:22:39.131Z,5.40
2023-04-14T22:25:06.868Z,5.70
2023-04-14T22:27:34.675Z,6.43
2023-04-14T22:30:02.822Z,5.60
2023-04-14T22:32:29.936Z,5.47
2023-04-14T22:34:57.515Z,5.97
2023-04-14T22:37:24.956Z,6.20
2023-04-14T22:39:52.651Z,5.83
2023-04-14T22:42:20.341Z,6.30
2023-04-14T22:44:48.462Z,6.03
2023-04-14T22:47:16.373Z,5.93
2023-04-14T22:49:43.499Z,5.80
2023-04-14T22:52:10.991Z,5.00
2023-04-14T22:54:38.400Z,5.23
2023-04-14T22:57:05.382Z,5.83
2023-04-14T22:59:32.349Z,5.00
2023-04-14T23:01:59.339Z,5.37
2023-04-14T23:04:26.987Z,4.40
2023-04-14T23:06:53.985Z,5.60
2023-04-14T23:09:21.479Z,5.60
2023-04-14T23:11:48.779Z,5.47
2023-04-14T23:14:15.992Z,4.97
2023-04-14T23:16:44.065Z,5.20
2023-04-14T23:19:11.047Z,5.40
2023-04-14T23:21:38.069Z,4.70
2023-04-14T23:24:08.629Z,5.10
2023-04-14T23:26:35.819Z,4.80
2023-04-14T23:29:03.223Z,4.90
2023-04-14T23:31:31.658Z,4.67
2023-04-14T23:33:58.852Z,4.70
2023-04-14T23:36:25.872Z,4.77
2023-04-14T23:38:54.156Z,5.53
2023-04-14T23:41:22.130Z,4.47
2023-04-14T23:43:49.814Z,3.77
2023-04-14T23:46:16.826Z,4.83
2023-04-14T23:48:43.775Z,4.50
2023-04-14T23:51:19.485Z,4.07
2023-04-14T23:53:47.720Z,4.80
2023-04-14T23:56:14.749Z,3.53
2023-04-14T23:58:41.709Z,4.53
